sensor_id;sensor_type;location;lat;lon;timestamp;temperature;humidity
13960;DHT22;7052;51.050;3.716;2023-06-26T00:00:11;22.40;74.90
13960;DHT22;7052;51.050;3.716;2023-06-26T00:02:39;22.40;75.40
13960;DHT22;7052;51.050;3.716;2023-06-26T00:05:09;22.40;76.30
13960;DHT22;7052;51.050;3.716;2023-06-26T00:07:36;22.30;75.50
13960;DHT22;7052;51.050;3.716;2023-06-26T00:10:04;22.30;75.60
13960;DHT22;7052;51.050;3.716;2023-06-26T00:12:31;22.20;75.50
13960;DHT22;7052;51.050;3.716;2023-06-26T00:14:59;22.10;76.40
13960;DHT22;7052;51.050;3.716;2023-06-26T00:17:26;22.10;76.90
13960;DHT22;7052;51.050;3.716;2023-06-26T00:19:53;22.00;77.50
13960;DHT22;7052;51.050;3.716;2023-06-26T00:22:21;21.90;78.30
13960;DHT22;7052;51.050;3.716;2023-06-26T00:24:48;21.80;79.30
13960;DHT22;7052;51.050;3.716;2023-06-26T00:27:16;21.80;79.90
13960;DHT22;7052;51.050;3.716;2023-06-26T00:29:45;21.70;80.70
13960;DHT22;7052;51.050;3.716;2023-06-26T00:32:14;21.70;81.20
13960;DHT22;7052;51.050;3.716;2023-06-26T00:34:43;21.60;81.70
13960;DHT22;7052;51.050;3.716;2023-06-26T00:37:11;21.60;82.90
13960;DHT22;7052;51.050;3.716;2023-06-26T00:39:39;21.50;83.30
13960;DHT22;7052;51.050;3.716;2023-06-26T00:42:07;21.60;83.80
13960;DHT22;7052;51.050;3.716;2023-06-26T00:44:34;21.50;84.70
13960;DHT22;7052;51.050;3.716;2023-06-26T00:47:01;21.50;85.30
13960;DHT22;7052;51.050;3.716;2023-06-26T00:49:28;21.40;86.00
13960;DHT22;7052;51.050;3.716;2023-06-26T00:51:55;21.40;86.70
13960;DHT22;7052;51.050;3.716;2023-06-26T00:54:23;21.30;87.70
13960;DHT22;7052;51.050;3.716;2023-06-26T00:56:52;21.20;88.30
13960;DHT22;7052;51.050;3.716;2023-06-26T00:59:19;21.30;89.70
13960;DHT22;7052;51.050;3.716;2023-06-26T01:01:48;21.30;89.80
13960;DHT22;7052;51.050;3.716;2023-06-26T01:04:17;21.30;90.00
13960;DHT22;7052;51.050;3.716;2023-06-26T01:06:46;21.30;90.20
13960;DHT22;7052;51.050;3.716;2023-06-26T01:09:16;21.30;90.40
13960;DHT22;7052;51.050;3.716;2023-06-26T01:11:44;21.30;90.80
13960;DHT22;7052;51.050;3.716;2023-06-26T01:14:13;21.20;91.10
13960;DHT22;7052;51.050;3.716;2023-06-26T01:16:44;21.20;91.20
13960;DHT22;7052;51.050;3.716;2023-06-26T01:19:19;21.30;91.40
13960;DHT22;7052;51.050;3.716;2023-06-26T01:21:54;21.20;91.70
13960;DHT22;7052;51.050;3.716;2023-06-26T01:24:25;21.20;92.00
13960;DHT22;7052;51.050;3.716;2023-06-26T01:27:01;21.10;92.20
13960;DHT22;7052;51.050;3.716;2023-06-26T01:29:30;21.10;92.90
13960;DHT22;7052;51.050;3.716;2023-06-26T01:32:01;20.90;93.10
13960;DHT22;7052;51.050;3.716;2023-06-26T01:34:28;21.00;93.80
13960;DHT22;7052;51.050;3.716;2023-06-26T01:36:56;20.90;94.20
13960;DHT22;7052;51.050;3.716;2023-06-26T01:39:24;20.90;94.70
13960;DHT22;7052;51.050;3.716;2023-06-26T01:41:51;20.90;95.10
13960;DHT22;7052;51.050;3.716;2023-06-26T01:44:26;20.90;95.70
13960;DHT22;7052;51.050;3.716;2023-06-26T01:47:00;20.70;96.20
13960;DHT22;7052;51.050;3.716;2023-06-26T01:49:38;20.70;97.00
13960;DHT22;7052;51.050;3.716;2023-06-26T01:52:20;20.60;97.80
13960;DHT22;7052;51.050;3.716;2023-06-26T01:55:05;20.60;98.90
13960;DHT22;7052;51.050;3.716;2023-06-26T01:57:32;20.50;99.40
13960;DHT22;7052;51.050;3.716;2023-06-26T02:00:04;20.50;99.90
13960;DHT22;7052;51.050;3.716;2023-06-26T02:02:36;20.50;99.90
13960;DHT22;7052;51.050;3.716;2023-06-26T02:05:04;20.50;99.90
13960;DHT22;7052;51.050;3.716;2023-06-26T02:07:31;20.40;99.90
13960;DHT22;7052;51.050;3.716;2023-06-26T02:10:00;20.40;99.90
13960;DHT22;7052;51.050;3.716;2023-06-26T02:12:27;20.20;99.90
13960;DHT22;7052;51.050;3.716;2023-06-26T02:14:53;20.30;99.90
13960;DHT22;7052;51.050;3.716;2023-06-26T02:17:22;20.20;99.90
13960;DHT22;7052;51.050;3.716;2023-06-26T02:19:50;20.20;99.90
13960;DHT22;7052;51.050;3.716;2023-06-26T02:22:17;20.10;99.90
13960;DHT22;7052;51.050;3.716;2023-06-26T02:24:44;20.10;99.90
13960;DHT22;7052;51.050;3.716;2023-06-26T02:27:13;20.00;99.90
13960;DHT22;7052;51.050;3.716;2023-06-26T02:29:40;20.00;99.90
13960;DHT22;7052;51.050;3.716;2023-06-26T02:32:07;20.00;99.90
13960;DHT22;7052;51.050;3.716;2023-06-26T02:34:35;19.90;99.90
13960;DHT22;7052;51.050;3.716;2023-06-26T02:37:04;19.90;99.90
13960;DHT22;7052;51.050;3.716;2023-06-26T02:39:32;19.90;99.90
13960;DHT22;7052;51.050;3.716;2023-06-26T02:41:59;19.90;99.90
13960;DHT22;7052;51.050;3.716;2023-06-26T02:44:27;19.80;99.90
13960;DHT22;7052;51.050;3.716;2023-06-26T02:46:57;19.80;99.90
13960;DHT22;7052;51.050;3.716;2023-06-26T02:49:25;19.70;99.90
13960;DHT22;7052;51.050;3.716;2023-06-26T02:51:54;19.80;99.90
13960;DHT22;7052;51.050;3.716;2023-06-26T02:54:21;19.60;99.90
13960;DHT22;7052;51.050;3.716;2023-06-26T02:56:48;19.60;99.90
13960;DHT22;7052;51.050;3.716;2023-06-26T02:59:17;19.60;99.90
13960;DHT22;7052;51.050;3.716;2023-06-26T03:01:45;19.50;99.90
13960;DHT22;7052;51.050;3.716;2023-06-26T03:04:12;19.50;99.90
13960;DHT22;7052;51.050;3.716;2023-06-26T03:06:41;19.40;99.90
13960;DHT22;7052;51.050;3.716;2023-06-26T03:09:12;19.40;99.90
13960;DHT22;7052;51.050;3.716;2023-06-26T03:11:40;19.40;99.90
13960;DHT22;7052;51.050;3.716;2023-06-26T03:14:07;19.30;99.90
13960;DHT22;7052;51.050;3.716;2023-06-26T03:16:34;19.30;99.90
13960;DHT22;7052;51.050;3.716;2023-06-26T03:19:02;19.20;99.90
13960;DHT22;7052;51.050;3.716;2023-06-26T03:21:30;19.20;99.90
13960;DHT22;7052;51.050;3.716;2023-06-26T03:23:57;19.10;99.90
13960;DHT22;7052;51.050;3.716;2023-06-26T03:26:26;19.10;99.90
13960;DHT22;7052;51.050;3.716;2023-06-26T03:28:55;19.00;99.90
13960;DHT22;7052;51.050;3.716;2023-06-26T03:31:25;19.00;99.90
13960;DHT22;7052;51.050;3.716;2023-06-26T03:33:52;19.00;99.90
13960;DHT22;7052;51.050;3.716;2023-06-26T03:36:19;19.00;99.90
13960;DHT22;7052;51.050;3.716;2023-06-26T03:38:46;18.80;99.90
13960;DHT22;7052;51.050;3.716;2023-06-26T03:41:16;18.80;99.90
13960;DHT22;7052;51.050;3.716;2023-06-26T03:43:46;18.80;99.90
13960;DHT22;7052;51.050;3.716;2023-06-26T03:46:13;18.80;99.90
13960;DHT22;7052;51.050;3.716;2023-06-26T03:48:40;18.80;99.90
13960;DHT22;7052;51.050;3.716;2023-06-26T03:51:09;18.70;99.90
13960;DHT22;7052;51.050;3.716;2023-06-26T03:53:36;18.70;99.90
13960;DHT22;7052;51.050;3.716;2023-06-26T03:56:03;18.70;99.90
13960;DHT22;7052;51.050;3.716;2023-06-26T03:58:30;18.60;99.90
13960;DHT22;7052;51.050;3.716;2023-06-26T04:00:58;18.60;99.90
13960;DHT22;7052;51.050;3.716;2023-06-26T04:03:28;18.70;99.90
13960;DHT22;7052;51.050;3.716;2023-06-26T04:05:57;18.60;99.90
13960;DHT22;7052;51.050;3.716;2023-06-26T04:08:26;18.60;99.90
13960;DHT22;7052;51.050;3.716;2023-06-26T04:10:53;18.50;99.90
13960;DHT22;7052;51.050;3.716;2023-06-26T04:13:22;18.50;99.90
13960;DHT22;7052;51.050;3.716;2023-06-26T04:15:52;18.50;99.90
13960;DHT22;7052;51.050;3.716;2023-06-26T04:18:20;18.50;99.90
13960;DHT22;7052;51.050;3.716;2023-06-26T04:21:08;18.60;99.90
13960;DHT22;7052;51.050;3.716;2023-06-26T04:23:37;18.40;99.90
13960;DHT22;7052;51.050;3.716;2023-06-26T04:26:05;18.40;99.90
13960;DHT22;7052;51.050;3.716;2023-06-26T04:28:32;18.40;99.90
13960;DHT22;7052;51.050;3.716;2023-06-26T04:31:00;18.40;99.90
13960;DHT22;7052;51.050;3.716;2023-06-26T04:33:31;18.40;99.90
13960;DHT22;7052;51.050;3.716;2023-06-26T04:35:58;18.40;99.90
13960;DHT22;7052;51.050;3.716;2023-06-26T04:38:29;18.40;99.90
13960;DHT22;7052;51.050;3.716;2023-06-26T04:40:56;18.40;99.90
13960;DHT22;7052;51.050;3.716;2023-06-26T04:43:24;18.40;99.90
13960;DHT22;7052;51.050;3.716;2023-06-26T04:45:51;18.50;99.90
13960;DHT22;7052;51.050;3.716;2023-06-26T04:48:19;18.40;99.90
13960;DHT22;7052;51.050;3.716;2023-06-26T04:50:50;18.40;99.90
13960;DHT22;7052;51.050;3.716;2023-06-26T04:53:20;18.40;99.90
13960;DHT22;7052;51.050;3.716;2023-06-26T04:55:49;18.40;99.90
13960;DHT22;7052;51.050;3.716;2023-06-26T04:58:15;18.50;99.90
13960;DHT22;7052;51.050;3.716;2023-06-26T05:00:46;18.40;99.90
13960;DHT22;7052;51.050;3.716;2023-06-26T05:03:15;18.50;99.90
13960;DHT22;7052;51.050;3.716;2023-06-26T05:05:44;18.50;99.90
13960;DHT22;7052;51.050;3.716;2023-06-26T05:08:20;18.50;99.90
13960;DHT22;7052;51.050;3.716;2023-06-26T05:10:48;18.50;99.90
13960;DHT22;7052;51.050;3.716;2023-06-26T05:13:15;18.60;99.90
13960;DHT22;7052;51.050;3.716;2023-06-26T05:15:45;18.60;99.90
13960;DHT22;7052;51.050;3.716;2023-06-26T05:18:13;18.60;99.90
13960;DHT22;7052;51.050;3.716;2023-06-26T05:20:41;18.60;99.90
13960;DHT22;7052;51.050;3.716;2023-06-26T05:23:11;18.60;99.90
13960;DHT22;7052;51.050;3.716;2023-06-26T05:25:41;18.60;99.90
13960;DHT22;7052;51.050;3.716;2023-06-26T05:28:09;18.70;99.90
13960;DHT22;7052;51.050;3.716;2023-06-26T05:30:38;18.70;99.90
13960;DHT22;7052;51.050;3.716;2023-06-26T05:33:09;18.80;99.90
13960;DHT22;7052;51.050;3.716;2023-06-26T05:35:37;18.80;99.90
13960;DHT22;7052;51.050;3.716;2023-06-26T05:38:06;18.80;99.90
13960;DHT22;7052;51.050;3.716;2023-06-26T05:40:33;18.80;99.90
13960;DHT22;7052;51.050;3.716;2023-06-26T05:43:04;18.90;99.90
13960;DHT22;7052;51.050;3.716;2023-06-26T05:45:31;18.90;99.90
13960;DHT22;7052;51.050;3.716;2023-06-26T05:47:58;18.90;99.90
13960;DHT22;7052;51.050;3.716;2023-06-26T05:50:28;19.00;99.90
13960;DHT22;7052;51.050;3.716;2023-06-26T05:52:57;19.00;99.90
13960;DHT22;7052;51.050;3.716;2023-06-26T05:55:28;19.10;99.90
13960;DHT22;7052;51.050;3.716;2023-06-26T05:57:56;19.10;99.90
13960;DHT22;7052;51.050;3.716;2023-06-26T06:00:28;19.20;99.90
13960;DHT22;7052;51.050;3.716;2023-06-26T06:02:59;19.30;99.60
13960;DHT22;7052;51.050;3.716;2023-06-26T06:05:25;19.60;99.80
13960;DHT22;7052;51.050;3.716;2023-06-26T06:07:52;20.50;98.00
13960;DHT22;7052;51.050;3.716;2023-06-26T06:10:19;21.60;93.60
13960;DHT22;7052;51.050;3.716;2023-06-26T06:12:46;22.40;87.90
13960;DHT22;7052;51.050;3.716;2023-06-26T06:15:14;23.00;82.60
13960;DHT22;7052;51.050;3.716;2023-06-26T06:17:42;23.30;77.40
13960;DHT22;7052;51.050;3.716;2023-06-26T06:20:10;23.90;71.40
13960;DHT22;7052;51.050;3.716;2023-06-26T06:22:37;24.20;68.50
13960;DHT22;7052;51.050;3.716;2023-06-26T06:25:05;24.30;64.80
13960;DHT22;7052;51.050;3.716;2023-06-26T06:27:36;24.40;64.50
13960;DHT22;7052;51.050;3.716;2023-06-26T06:30:05;24.60;62.20
13960;DHT22;7052;51.050;3.716;2023-06-26T06:32:33;24.80;61.70
13960;DHT22;7052;51.050;3.716;2023-06-26T06:35:03;24.90;59.10
13960;DHT22;7052;51.050;3.716;2023-06-26T06:37:36;25.00;58.10
13960;DHT22;7052;51.050;3.716;2023-06-26T06:40:05;25.00;58.50
13960;DHT22;7052;51.050;3.716;2023-06-26T06:42:36;25.00;57.30
13960;DHT22;7052;51.050;3.716;2023-06-26T06:45:04;25.10;56.10
13960;DHT22;7052;51.050;3.716;2023-06-26T06:47:34;25.20;54.50
13960;DHT22;7052;51.050;3.716;2023-06-26T06:50:03;25.30;54.20
13960;DHT22;7052;51.050;3.716;2023-06-26T06:52:38;25.20;54.70
13960;DHT22;7052;51.050;3.716;2023-06-26T06:55:07;25.10;55.40
13960;DHT22;7052;51.050;3.716;2023-06-26T06:57:35;25.20;55.80
13960;DHT22;7052;51.050;3.716;2023-06-26T07:00:04;25.30;54.90
13960;DHT22;7052;51.050;3.716;2023-06-26T07:02:34;25.30;54.70
13960;DHT22;7052;51.050;3.716;2023-06-26T07:05:16;25.20;54.30
13960;DHT22;7052;51.050;3.716;2023-06-26T07:07:43;25.40;53.60
13960;DHT22;7052;51.050;3.716;2023-06-26T07:10:13;25.40;53.30
13960;DHT22;7052;51.050;3.716;2023-06-26T07:12:41;25.50;53.20
13960;DHT22;7052;51.050;3.716;2023-06-26T07:15:11;25.60;52.10
13960;DHT22;7052;51.050;3.716;2023-06-26T07:17:38;25.40;52.20
13960;DHT22;7052;51.050;3.716;2023-06-26T07:20:06;25.20;53.90
13960;DHT22;7052;51.050;3.716;2023-06-26T07:22:35;25.20;52.90
13960;DHT22;7052;51.050;3.716;2023-06-26T07:25:04;25.00;53.50
13960;DHT22;7052;51.050;3.716;2023-06-26T07:27:35;24.90;53.50
13960;DHT22;7052;51.050;3.716;2023-06-26T07:30:04;24.70;54.30
13960;DHT22;7052;51.050;3.716;2023-06-26T07:32:31;24.90;54.00
13960;DHT22;7052;51.050;3.716;2023-06-26T07:34:58;25.00;53.20
13960;DHT22;7052;51.050;3.716;2023-06-26T07:37:25;24.90;52.90
13960;DHT22;7052;51.050;3.716;2023-06-26T07:39:55;25.00;52.20
13960;DHT22;7052;51.050;3.716;2023-06-26T07:42:22;25.00;51.50
13960;DHT22;7052;51.050;3.716;2023-06-26T07:44:52;25.00;51.30
13960;DHT22;7052;51.050;3.716;2023-06-26T07:47:18;25.10;51.00
13960;DHT22;7052;51.050;3.716;2023-06-26T07:49:45;24.80;51.30
13960;DHT22;7052;51.050;3.716;2023-06-26T07:52:12;24.70;51.20
13960;DHT22;7052;51.050;3.716;2023-06-26T07:54:41;24.70;51.50
13960;DHT22;7052;51.050;3.716;2023-06-26T07:57:12;24.70;52.10
13960;DHT22;7052;51.050;3.716;2023-06-26T07:59:40;24.80;52.30
13960;DHT22;7052;51.050;3.716;2023-06-26T08:02:07;24.50;51.20
13960;DHT22;7052;51.050;3.716;2023-06-26T08:04:34;24.20;51.60
13960;DHT22;7052;51.050;3.716;2023-06-26T08:07:01;24.00;52.00
13960;DHT22;7052;51.050;3.716;2023-06-26T08:09:29;24.00;52.50
13960;DHT22;7052;51.050;3.716;2023-06-26T08:11:58;24.00;53.00
13960;DHT22;7052;51.050;3.716;2023-06-26T08:14:26;24.00;51.80
13960;DHT22;7052;51.050;3.716;2023-06-26T08:16:54;24.10;51.90
13960;DHT22;7052;51.050;3.716;2023-06-26T08:19:21;24.10;51.60
13960;DHT22;7052;51.050;3.716;2023-06-26T08:21:50;24.10;52.10
13960;DHT22;7052;51.050;3.716;2023-06-26T08:24:18;23.90;52.10
13960;DHT22;7052;51.050;3.716;2023-06-26T08:26:47;23.80;52.60
13960;DHT22;7052;51.050;3.716;2023-06-26T08:29:16;23.70;52.80
13960;DHT22;7052;51.050;3.716;2023-06-26T08:31:46;23.50;53.00
13960;DHT22;7052;51.050;3.716;2023-06-26T08:34:14;23.50;53.50
13960;DHT22;7052;51.050;3.716;2023-06-26T08:36:41;23.50;53.10
13960;DHT22;7052;51.050;3.716;2023-06-26T08:39:08;23.50;53.00
13960;DHT22;7052;51.050;3.716;2023-06-26T08:41:37;23.50;53.10
13960;DHT22;7052;51.050;3.716;2023-06-26T08:44:05;23.40;53.50
13960;DHT22;7052;51.050;3.716;2023-06-26T08:46:32;23.40;53.10
13960;DHT22;7052;51.050;3.716;2023-06-26T08:49:20;23.40;52.50
13960;DHT22;7052;51.050;3.716;2023-06-26T08:51:52;23.40;52.60
13960;DHT22;7052;51.050;3.716;2023-06-26T08:54:26;23.40;52.30
13960;DHT22;7052;51.050;3.716;2023-06-26T08:56:56;23.50;51.20
13960;DHT22;7052;51.050;3.716;2023-06-26T08:59:24;23.40;51.60
13960;DHT22;7052;51.050;3.716;2023-06-26T09:01:54;23.40;51.40
13960;DHT22;7052;51.050;3.716;2023-06-26T09:04:23;23.50;52.00
13960;DHT22;7052;51.050;3.716;2023-06-26T09:07:05;23.60;51.80
13960;DHT22;7052;51.050;3.716;2023-06-26T09:09:32;23.60;51.00
13960;DHT22;7052;51.050;3.716;2023-06-26T09:12:00;23.80;51.10
13960;DHT22;7052;51.050;3.716;2023-06-26T09:14:29;23.80;51.30
13960;DHT22;7052;51.050;3.716;2023-06-26T09:16:58;23.90;50.10
13960;DHT22;7052;51.050;3.716;2023-06-26T09:19:27;23.90;49.50
13960;DHT22;7052;51.050;3.716;2023-06-26T09:21:55;24.00;48.20
13960;DHT22;7052;51.050;3.716;2023-06-26T09:24:25;24.00;47.80
13960;DHT22;7052;51.050;3.716;2023-06-26T09:26:52;24.10;47.70
13960;DHT22;7052;51.050;3.716;2023-06-26T09:29:19;24.10;48.40
13960;DHT22;7052;51.050;3.716;2023-06-26T09:31:51;24.20;49.00
13960;DHT22;7052;51.050;3.716;2023-06-26T09:34:18;24.10;49.10
13960;DHT22;7052;51.050;3.716;2023-06-26T09:36:47;24.00;49.90
13960;DHT22;7052;51.050;3.716;2023-06-26T09:39:14;24.10;50.10
13960;DHT22;7052;51.050;3.716;2023-06-26T09:41:42;24.20;47.90
13960;DHT22;7052;51.050;3.716;2023-06-26T09:44:11;24.20;48.30
13960;DHT22;7052;51.050;3.716;2023-06-26T09:46:40;24.10;49.10
13960;DHT22;7052;51.050;3.716;2023-06-26T09:49:12;24.10;48.10
13960;DHT22;7052;51.050;3.716;2023-06-26T09:51:41;24.20;47.30
13960;DHT22;7052;51.050;3.716;2023-06-26T09:54:16;24.10;47.90
13960;DHT22;7052;51.050;3.716;2023-06-26T09:56:44;24.10;47.80
13960;DHT22;7052;51.050;3.716;2023-06-26T09:59:11;24.10;47.30
13960;DHT22;7052;51.050;3.716;2023-06-26T10:01:41;24.20;47.50
13960;DHT22;7052;51.050;3.716;2023-06-26T10:04:09;24.10;46.80
13960;DHT22;7052;51.050;3.716;2023-06-26T10:06:41;24.20;47.50
13960;DHT22;7052;51.050;3.716;2023-06-26T10:09:11;24.30;48.00
13960;DHT22;7052;51.050;3.716;2023-06-26T10:11:45;24.30;47.90
13960;DHT22;7052;51.050;3.716;2023-06-26T10:14:13;24.30;47.10
13960;DHT22;7052;51.050;3.716;2023-06-26T10:16:43;24.30;47.50
13960;DHT22;7052;51.050;3.716;2023-06-26T10:19:12;24.30;47.10
13960;DHT22;7052;51.050;3.716;2023-06-26T10:21:40;24.30;46.40
13960;DHT22;7052;51.050;3.716;2023-06-26T10:24:12;24.30;44.60
13960;DHT22;7052;51.050;3.716;2023-06-26T10:26:44;24.30;45.60
13960;DHT22;7052;51.050;3.716;2023-06-26T10:29:14;24.30;46.30
13960;DHT22;7052;51.050;3.716;2023-06-26T10:31:47;24.30;47.20
13960;DHT22;7052;51.050;3.716;2023-06-26T10:34:17;24.40;46.60
13960;DHT22;7052;51.050;3.716;2023-06-26T10:36:44;24.50;45.10
13960;DHT22;7052;51.050;3.716;2023-06-26T10:39:14;24.70;45.20
13960;DHT22;7052;51.050;3.716;2023-06-26T10:41:45;24.70;45.20
13960;DHT22;7052;51.050;3.716;2023-06-26T10:44:15;24.70;45.90
13960;DHT22;7052;51.050;3.716;2023-06-26T10:46:51;24.70;45.40
13960;DHT22;7052;51.050;3.716;2023-06-26T10:49:19;24.80;45.30
13960;DHT22;7052;51.050;3.716;2023-06-26T10:51:47;24.80;44.00
13960;DHT22;7052;51.050;3.716;2023-06-26T10:54:19;24.80;43.80
13960;DHT22;7052;51.050;3.716;2023-06-26T10:56:48;24.80;43.40
13960;DHT22;7052;51.050;3.716;2023-06-26T10:59:17;24.70;43.50
13960;DHT22;7052;51.050;3.716;2023-06-26T11:01:53;24.70;43.60
13960;DHT22;7052;51.050;3.716;2023-06-26T11:04:36;24.60;43.10
13960;DHT22;7052;51.050;3.716;2023-06-26T11:07:18;24.70;42.90
13960;DHT22;7052;51.050;3.716;2023-06-26T11:09:57;24.90;41.80
13960;DHT22;7052;51.050;3.716;2023-06-26T11:12:38;24.80;41.70
13960;DHT22;7052;51.050;3.716;2023-06-26T11:15:08;24.90;42.70
13960;DHT22;7052;51.050;3.716;2023-06-26T11:17:35;25.00;43.00
13960;DHT22;7052;51.050;3.716;2023-06-26T11:20:05;25.00;43.10
13960;DHT22;7052;51.050;3.716;2023-06-26T11:22:35;25.20;42.40
13960;DHT22;7052;51.050;3.716;2023-06-26T11:25:08;25.30;41.60
13960;DHT22;7052;51.050;3.716;2023-06-26T11:27:39;25.00;41.60
13960;DHT22;7052;51.050;3.716;2023-06-26T11:30:10;24.80;41.20
13960;DHT22;7052;51.050;3.716;2023-06-26T11:32:40;24.70;41.70
13960;DHT22;7052;51.050;3.716;2023-06-26T11:35:09;24.70;42.10
13960;DHT22;7052;51.050;3.716;2023-06-26T11:37:37;24.80;41.30
13960;DHT22;7052;51.050;3.716;2023-06-26T11:40:20;24.90;40.40
13960;DHT22;7052;51.050;3.716;2023-06-26T11:42:52;25.10;40.50
13960;DHT22;7052;51.050;3.716;2023-06-26T11:45:19;25.30;40.80
13960;DHT22;7052;51.050;3.716;2023-06-26T11:47:46;25.30;40.40
13960;DHT22;7052;51.050;3.716;2023-06-26T11:50:15;25.40;41.00
13960;DHT22;7052;51.050;3.716;2023-06-26T11:52:43;25.50;40.60
13960;DHT22;7052;51.050;3.716;2023-06-26T11:55:12;25.50;40.20
13960;DHT22;7052;51.050;3.716;2023-06-26T11:57:42;25.40;40.60
13960;DHT22;7052;51.050;3.716;2023-06-26T12:00:11;25.30;40.60
13960;DHT22;7052;51.050;3.716;2023-06-26T12:02:39;25.40;40.90
13960;DHT22;7052;51.050;3.716;2023-06-26T12:05:06;25.20;41.10
13960;DHT22;7052;51.050;3.716;2023-06-26T12:07:33;25.20;41.20
13960;DHT22;7052;51.050;3.716;2023-06-26T12:10:04;25.20;40.90
13960;DHT22;7052;51.050;3.716;2023-06-26T12:12:32;25.40;40.90
13960;DHT22;7052;51.050;3.716;2023-06-26T12:15:01;25.50;41.00
13960;DHT22;7052;51.050;3.716;2023-06-26T12:17:28;25.50;40.90
13960;DHT22;7052;51.050;3.716;2023-06-26T12:19:55;25.50;41.30
13960;DHT22;7052;51.050;3.716;2023-06-26T12:22:23;25.50;42.20
13960;DHT22;7052;51.050;3.716;2023-06-26T12:24:50;25.30;41.60
13960;DHT22;7052;51.050;3.716;2023-06-26T12:27:18;25.30;41.30
13960;DHT22;7052;51.050;3.716;2023-06-26T12:29:51;25.40;40.70
13960;DHT22;7052;51.050;3.716;2023-06-26T12:32:23;25.50;40.70
13960;DHT22;7052;51.050;3.716;2023-06-26T12:34:52;25.40;40.50
13960;DHT22;7052;51.050;3.716;2023-06-26T12:37:21;25.40;40.50
13960;DHT22;7052;51.050;3.716;2023-06-26T12:39:50;25.30;40.10
13960;DHT22;7052;51.050;3.716;2023-06-26T12:42:21;25.10;39.80
13960;DHT22;7052;51.050;3.716;2023-06-26T12:44:50;25.10;40.40
13960;DHT22;7052;51.050;3.716;2023-06-26T12:47:23;25.00;42.50
13960;DHT22;7052;51.050;3.716;2023-06-26T12:49:54;25.00;42.20
13960;DHT22;7052;51.050;3.716;2023-06-26T12:52:21;24.80;42.10
13960;DHT22;7052;51.050;3.716;2023-06-26T12:54:53;24.90;42.90
13960;DHT22;7052;51.050;3.716;2023-06-26T12:57:21;24.70;43.10
13960;DHT22;7052;51.050;3.716;2023-06-26T12:59:48;24.70;43.40
13960;DHT22;7052;51.050;3.716;2023-06-26T13:02:16;24.90;42.70
13960;DHT22;7052;51.050;3.716;2023-06-26T13:04:43;24.80;43.00
13960;DHT22;7052;51.050;3.716;2023-06-26T13:07:14;24.80;42.80
13960;DHT22;7052;51.050;3.716;2023-06-26T13:09:41;24.80;42.50
13960;DHT22;7052;51.050;3.716;2023-06-26T13:12:08;24.70;42.50
13960;DHT22;7052;51.050;3.716;2023-06-26T13:14:36;24.70;42.40
13960;DHT22;7052;51.050;3.716;2023-06-26T13:17:04;24.50;43.30
13960;DHT22;7052;51.050;3.716;2023-06-26T13:19:31;24.40;42.80
13960;DHT22;7052;51.050;3.716;2023-06-26T13:21:58;24.40;42.70
13960;DHT22;7052;51.050;3.716;2023-06-26T13:24:27;24.50;42.90
13960;DHT22;7052;51.050;3.716;2023-06-26T13:26:55;24.50;42.50
13960;DHT22;7052;51.050;3.716;2023-06-26T13:29:24;24.60;42.50
13960;DHT22;7052;51.050;3.716;2023-06-26T13:31:52;24.90;42.10
13960;DHT22;7052;51.050;3.716;2023-06-26T13:34:21;25.00;41.40
13960;DHT22;7052;51.050;3.716;2023-06-26T13:36:49;25.10;41.60
13960;DHT22;7052;51.050;3.716;2023-06-26T13:39:18;25.30;41.50
13960;DHT22;7052;51.050;3.716;2023-06-26T13:41:47;25.50;41.20
13960;DHT22;7052;51.050;3.716;2023-06-26T13:44:14;25.50;40.30
13960;DHT22;7052;51.050;3.716;2023-06-26T13:46:42;25.50;40.20
13960;DHT22;7052;51.050;3.716;2023-06-26T13:49:12;25.50;40.20
13960;DHT22;7052;51.050;3.716;2023-06-26T13:51:39;25.40;39.40
13960;DHT22;7052;51.050;3.716;2023-06-26T13:54:12;25.50;38.40
13960;DHT22;7052;51.050;3.716;2023-06-26T13:56:40;25.60;36.90
13960;DHT22;7052;51.050;3.716;2023-06-26T13:59:10;25.50;36.40
13960;DHT22;7052;51.050;3.716;2023-06-26T14:01:39;25.50;37.30
13960;DHT22;7052;51.050;3.716;2023-06-26T14:04:08;25.40;37.90
13960;DHT22;7052;51.050;3.716;2023-06-26T14:06:36;25.30;38.10
13960;DHT22;7052;51.050;3.716;2023-06-26T14:09:03;25.30;38.20
13960;DHT22;7052;51.050;3.716;2023-06-26T14:11:30;25.40;38.00
13960;DHT22;7052;51.050;3.716;2023-06-26T14:13:57;25.40;37.90
13960;DHT22;7052;51.050;3.716;2023-06-26T14:16:27;25.50;37.70
13960;DHT22;7052;51.050;3.716;2023-06-26T14:18:55;25.40;38.30
13960;DHT22;7052;51.050;3.716;2023-06-26T14:21:24;25.50;38.20
13960;DHT22;7052;51.050;3.716;2023-06-26T14:23:53;25.40;38.80
13960;DHT22;7052;51.050;3.716;2023-06-26T14:26:20;25.40;39.20
13960;DHT22;7052;51.050;3.716;2023-06-26T14:28:48;25.60;39.80
13960;DHT22;7052;51.050;3.716;2023-06-26T14:31:17;25.60;40.20
13960;DHT22;7052;51.050;3.716;2023-06-26T14:33:46;25.60;41.20
13960;DHT22;7052;51.050;3.716;2023-06-26T14:36:15;25.60;41.60
13960;DHT22;7052;51.050;3.716;2023-06-26T14:38:42;25.70;42.10
13960;DHT22;7052;51.050;3.716;2023-06-26T14:41:09;25.70;42.30
13960;DHT22;7052;51.050;3.716;2023-06-26T14:43:35;25.60;43.40
13960;DHT22;7052;51.050;3.716;2023-06-26T14:46:03;25.50;44.20
13960;DHT22;7052;51.050;3.716;2023-06-26T14:48:30;25.50;44.40
13960;DHT22;7052;51.050;3.716;2023-06-26T14:50:58;25.50;43.80
13960;DHT22;7052;51.050;3.716;2023-06-26T14:53:27;25.50;43.20
13960;DHT22;7052;51.050;3.716;2023-06-26T14:55:58;25.50;44.10
13960;DHT22;7052;51.050;3.716;2023-06-26T14:58:28;25.50;43.50
13960;DHT22;7052;51.050;3.716;2023-06-26T15:00:57;25.40;43.50
13960;DHT22;7052;51.050;3.716;2023-06-26T15:03:24;25.40;43.30
13960;DHT22;7052;51.050;3.716;2023-06-26T15:05:54;25.40;43.50
13960;DHT22;7052;51.050;3.716;2023-06-26T15:08:22;25.30;44.00
13960;DHT22;7052;51.050;3.716;2023-06-26T15:10:50;25.30;43.60
13960;DHT22;7052;51.050;3.716;2023-06-26T15:13:17;25.30;42.20
13960;DHT22;7052;51.050;3.716;2023-06-26T15:15:44;25.30;42.20
13960;DHT22;7052;51.050;3.716;2023-06-26T15:18:11;25.20;42.00
13960;DHT22;7052;51.050;3.716;2023-06-26T15:20:38;25.20;42.60
13960;DHT22;7052;51.050;3.716;2023-06-26T15:23:05;25.10;42.70
13960;DHT22;7052;51.050;3.716;2023-06-26T15:25:35;25.10;42.90
13960;DHT22;7052;51.050;3.716;2023-06-26T15:28:02;25.00;42.90
13960;DHT22;7052;51.050;3.716;2023-06-26T15:30:29;24.90;43.10
13960;DHT22;7052;51.050;3.716;2023-06-26T15:32:59;24.90;43.20
13960;DHT22;7052;51.050;3.716;2023-06-26T15:35:27;24.80;43.20
13960;DHT22;7052;51.050;3.716;2023-06-26T15:37:54;24.80;43.00
13960;DHT22;7052;51.050;3.716;2023-06-26T15:40:21;24.70;43.50
13960;DHT22;7052;51.050;3.716;2023-06-26T15:42:51;24.60;43.90
13960;DHT22;7052;51.050;3.716;2023-06-26T15:45:19;24.60;44.30
13960;DHT22;7052;51.050;3.716;2023-06-26T15:47:49;24.60;44.10
13960;DHT22;7052;51.050;3.716;2023-06-26T15:50:17;24.40;45.30
13960;DHT22;7052;51.050;3.716;2023-06-26T15:52:45;24.40;44.80
13960;DHT22;7052;51.050;3.716;2023-06-26T15:55:12;24.30;45.10